Latest Weather Observations for Rocky Gully South

IDW60801

Issued at 3:32 pm WST Friday 27 February 2015 (issued every 30 minutes, with the page automatically refreshed every 10 minutes)

About weather observations | Map of weather stations | Latest weather observations for WA | Other Formats
Station Details ID: 009964 Name: ROCKY GULLY Lat: -34.57 Lon: 117.01 Height: 250.0 m
Data from the previous 72 hours. | See also: Recent months at Rocky Gully South
Date/Time
WST
Temp
°C
App
Temp
°C
Dew
Point
Rel
Hum
%
Delta-T
°C
Wind Press
QNH
hPa
Press
MSL
hPa
Rain
since 9 am
mm
Dir
 
Spd
km/h
Gust
km/h
Spd
kts
Gust
kts
27/03:30pm 22.2 20.0 10.7 48 6.4 SSW 13 26 7 14 - - 0.2
27/03:00pm 22.4 19.3 11.5 50 6.2 SSW 19 28 10 15 - - 0.2
27/02:30pm 22.0 19.2 11.4 51 6.0 SSW 17 28 9 15 - - 0.2
27/02:00pm 23.2 20.4 11.3 47 6.7 SW 17 28 9 15 - - 0.2
27/01:30pm 22.8 20.9 11.8 50 6.3 S 13 20 7 11 - - 0.2
27/01:00pm 21.5 19.9 12.9 58 5.0 SSW 13 24 7 13 - - 0.2
27/12:30pm 22.1 20.4 13.7 59 4.9 SSW 15 26 8 14 - - 0.2
27/12:00pm 21.5 19.7 12.1 55 5.3 S 13 24 7 13 - - 0.2
27/11:30am 21.3 20.0 13.7 62 4.4 SSW 13 22 7 12 - - 0.2
27/11:00am 20.2 19.4 13.9 67 3.7 SW 11 20 6 11 - - 0.2
27/10:30am 18.7 17.6 14.4 76 2.5 S 13 20 7 11 - - 0.2
27/10:00am 18.4 18.2 16.7 90 1.0 S 13 20 7 11 - - 0.2
27/09:30am 17.0 16.5 16.0 94 0.6 S 13 20 7 11 - - 0.2
27/09:00am 16.5 15.8 15.5 94 0.6 S 13 20 7 11 - - 12.2
27/08:30am 16.5 15.5 15.5 94 0.6 S 15 22 8 12 - - 12.2
27/08:00am 16.5 16.2 15.5 94 0.6 S 11 24 6 13 - - 12.2
27/07:30am 16.5 15.5 15.5 94 0.6 S 15 22 8 12 - - 12.2
27/07:00am 17.0 16.5 16.0 94 0.6 S 13 24 7 13 - - 11.8
27/06:30am 17.0 16.5 16.0 94 0.6 S 13 20 7 11 - - 11.6
27/06:00am 17.4 17.5 16.4 94 0.6 SSW 11 17 6 9 - - 11.4
27/05:30am 17.6 17.7 16.6 94 0.6 S 11 17 6 9 - - 11.4
27/05:00am 17.7 17.9 16.7 94 0.6 S 11 19 6 10 - - 11.4
27/04:30am 18.0 18.7 17.0 94 0.6 S 9 17 5 9 - - 11.2
27/04:00am 18.1 18.4 17.1 94 0.6 S 11 17 6 9 - - 11.0
27/03:30am 18.2 18.2 17.2 94 0.6 S 13 20 7 11 - - 10.8
27/03:00am 18.2 18.6 17.2 94 0.6 S 11 15 6 8 - - 10.8
27/02:30am 18.3 19.1 17.3 94 0.6 S 9 13 5 7 - - 10.8
27/02:00am 18.4 19.2 17.4 94 0.6 S 9 13 5 7 - - 10.8
27/01:30am 18.5 19.8 17.5 94 0.6 S 7 11 4 6 - - 10.8
27/01:00am 18.6 19.9 17.6 94 0.6 SSW 7 13 4 7 - - 10.8
27/12:30am 18.6 19.9 17.6 94 0.6 SE 7 9 4 5 - - 10.8
27/12:00am 18.6 20.9 17.6 94 0.6 E 2 7 1 4 - - 6.8
 
Date/Time
WST
Temp
°C
App
Temp
°C
Dew
Point
Rel
Hum
%
Delta-T
°C
Wind Press
QNH
hPa
Press
MSL
hPa
Rain
since 9 am
mm
Dir
 
Spd
km/h
Gust
km/h
Spd
kts
Gust
kts
26/11:30pm 18.6 19.9 17.6 94 0.6 SE 7 11 4 6 - - 6.8
26/11:00pm 18.6 19.9 17.6 94 0.6 SSE 7 11 4 6 - - 6.8
26/10:30pm 18.6 19.5 17.6 94 0.6 ESE 9 13 5 7 - - 6.8
26/10:00pm 18.8 20.2 17.8 94 0.6 SE 7 11 4 6 - - 6.8
26/09:30pm 18.8 19.7 17.6 93 0.7 S 9 13 5 7 - - 6.8
26/09:00pm 18.8 19.7 17.6 93 0.7 SE 9 15 5 8 - - 6.8
26/08:30pm 18.9 19.9 17.7 93 0.7 SSE 9 15 5 8 - - 6.8
26/08:00pm 19.1 20.2 17.9 93 0.7 SSE 9 17 5 9 - - 6.6
26/07:30pm 19.1 19.7 17.8 92 0.8 S 11 22 6 12 - - 6.6
26/07:00pm 19.5 19.8 18.0 91 0.9 S 13 22 7 12 - - 6.6
26/06:30pm 20.3 20.8 18.4 89 1.2 S 13 22 7 12 - - 6.6
26/06:00pm 21.6 22.1 19.2 86 1.5 SSE 15 20 8 11 - - 6.6
26/05:30pm 22.2 23.3 19.6 85 1.7 S 13 19 7 10 - - 6.6
26/05:00pm 22.8 24.2 19.6 82 2.1 S 11 17 6 9 - - 6.6
26/04:30pm 24.1 26.3 19.6 76 2.9 ENE 7 11 4 6 - - 6.6
26/04:00pm 24.1 26.2 19.4 75 3.0 NNE 7 13 4 7 - - 6.6
26/03:30pm 24.6 26.1 19.0 71 3.6 ENE 9 15 5 8 - - 6.6
26/03:00pm 25.0 27.3 19.8 73 3.4 ENE 7 13 4 7 - - 6.6
26/02:30pm 24.8 26.6 18.7 69 3.9 S 7 11 4 6 - - 6.6
26/02:00pm 23.6 25.8 19.1 76 2.9 SSE 6 13 3 7 - - 6.6
26/01:30pm 22.0 23.2 19.0 83 1.9 ENE 11 17 6 9 - - 6.6
26/01:00pm 21.1 23.3 19.2 89 1.2 SE 6 11 3 6 - - 6.6
26/12:30pm 20.8 21.7 18.4 86 1.5 NNW 11 15 6 8 - - 4.8
26/12:00pm 22.1 23.9 18.3 79 2.4 NE 6 11 3 6 - - 1.2
26/11:30am 21.4 22.5 18.0 81 2.1 ENE 9 17 5 9 - - 1.2
26/11:00am 19.7 21.3 18.2 91 0.9 ENE 7 15 4 8 - - 1.2
26/10:30am 17.9 17.9 16.2 90 1.0 ESE 11 19 6 10 - - 1.2
26/10:00am 17.9 18.6 16.1 89 1.1 SSW 7 15 4 8 - - 0.6
26/09:30am 18.4 19.7 16.2 87 1.3 NW 4 9 2 5 - - 0.4
26/09:00am 17.9 18.5 15.9 88 1.2 ESE 7 11 4 6 - - 0.2
26/08:30am 17.3 17.4 15.5 89 1.1 E 9 17 5 9 - - 0.2
26/08:00am 16.9 16.9 15.1 89 1.1 E 9 17 5 9 - - 0.2
26/07:30am 16.7 17.0 14.5 87 1.3 ENE 6 11 3 6 - - 0.2
26/07:00am 16.5 17.1 14.3 87 1.3 SSE 4 11 2 6 - - 0.0
26/06:30am 15.8 15.3 13.8 88 1.1 E 9 15 5 8 - - 0.0
26/06:00am 15.7 15.2 13.7 88 1.1 SE 9 15 5 8 - - 0.0
26/05:30am 15.6 15.0 13.6 88 1.1 S 9 13 5 7 - - 0.0
26/05:00am 15.5 15.5 13.5 88 1.1 E 6 11 3 6 - - 0.0
26/04:30am 15.2 14.9 13.4 89 1.0 SE 7 11 4 6 - - 0.0
26/04:00am 15.0 14.6 13.0 88 1.1 E 7 11 4 6 - - 0.0
26/03:30am 15.2 14.8 13.1 87 1.2 SE 7 13 4 7 - - 0.0
26/03:00am 15.4 15.0 12.9 85 1.4 SE 7 11 4 6 - - 0.0
26/02:30am 15.8 15.6 13.1 84 1.5 SSE 6 9 3 5 - - 0.0
26/02:00am 16.2 15.9 13.3 83 1.6 SSE 7 13 4 7 - - 0.0
26/01:30am 16.5 16.2 13.2 81 1.9 SE 7 11 4 6 - - 0.0
26/01:00am 16.9 16.7 13.6 81 1.9 NE 7 13 4 7 - - 0.0
26/12:30am 17.1 16.9 13.6 80 2.0 E 7 11 4 6 - - 0.0
26/12:00am 17.2 16.7 13.7 80 2.0 ESE 9 13 5 7 - - 0.0
 
Date/Time
WST
Temp
°C
App
Temp
°C
Dew
Point
Rel
Hum
%
Delta-T
°C
Wind Press
QNH
hPa
Press
MSL
hPa
Rain
since 9 am
mm
Dir
 
Spd
km/h
Gust
km/h
Spd
kts
Gust
kts
25/11:30pm 17.3 16.7 13.6 79 2.1 ESE 9 17 5 9 - - 0.0
25/11:00pm 17.6 16.7 13.7 78 2.2 ESE 11 19 6 10 - - 0.0
25/10:30pm 17.9 17.0 13.8 77 2.4 ESE 11 20 6 11 - - 0.0
25/10:00pm 18.1 17.7 14.0 77 2.4 ESE 9 17 5 9 - - 0.0
25/09:30pm 18.2 17.8 14.1 77 2.4 ESE 9 17 5 9 - - 0.0
25/09:00pm 18.1 17.3 14.0 77 2.4 E 11 19 6 10 - - 0.0
25/08:30pm 18.3 17.5 14.0 76 2.5 ESE 11 19 6 10 - - 0.0
25/08:00pm 18.5 18.2 14.4 77 2.4 SE 9 15 5 8 - - 0.0
25/07:30pm 19.0 17.9 14.3 74 2.7 SE 13 22 7 12 - - 0.0
25/07:00pm 19.9 18.5 14.5 71 3.2 SE 15 20 8 11 - - 0.0
25/06:30pm 20.7 19.7 14.6 68 3.6 SSE 13 22 7 12 - - 0.0
25/06:00pm 22.0 20.6 14.6 63 4.4 SSE 15 24 8 13 - - 0.0
25/05:30pm 23.0 21.3 14.6 59 5.0 SSE 17 26 9 14 - - 0.0
25/05:00pm 24.3 22.2 14.7 55 5.8 SSE 19 28 10 15 - - 0.0
25/04:30pm 25.3 23.6 14.7 51 6.4 SSE 17 32 9 17 - - 0.0
25/04:00pm 25.9 23.8 15.3 52 6.5 SSE 20 32 11 17 - - 0.0
25/03:30pm 26.5 24.7 15.5 50 6.8 S 19 32 10 17 - - 0.0
25/03:00pm 27.4 25.5 15.7 48 7.2 S 20 32 11 17 - - 0.0
25/02:30pm 27.3 25.4 15.3 48 7.4 S 19 28 10 15 - - 0.0
25/02:00pm 28.3 27.6 14.2 42 8.5 S 11 17 6 9 - - 0.0
25/01:30pm 27.9 26.4 14.2 43 8.3 SSE 15 28 8 15 - - 0.0
25/01:00pm 26.9 26.0 13.6 44 7.9 SE 11 17 6 9 - - 0.0
25/12:30pm 26.3 24.9 14.4 48 7.2 S 15 22 8 12 - - 0.0
25/12:00pm 24.7 22.9 14.5 53 6.1 S 17 24 9 13 - - 0.0
25/11:30am 23.4 22.7 14.4 57 5.4 SE 11 17 6 9 - - 0.0
25/11:00am 23.3 22.2 14.3 57 5.4 SE 13 24 7 13 - - 0.0
25/10:30am 22.4 21.5 14.8 62 4.5 SE 13 24 7 13 - - 0.0
25/10:00am 21.3 20.0 14.7 66 3.9 S 15 20 8 11 - - 0.0
25/09:30am 20.3 19.7 14.7 70 3.3 SSE 11 19 6 10 - - 0.0
25/09:00am 19.8 19.7 15.0 74 2.8 SSE 9 19 5 10 - - 0.0
25/08:30am 19.1 18.6 14.8 76 2.5 SSE 11 19 6 10 - - 0.0
25/08:00am 18.6 17.7 14.9 79 2.2 SE 13 24 7 13 - - 0.0
25/07:30am 18.4 16.8 14.9 80 2.1 SSE 17 26 9 14 - - 0.0
25/07:00am 17.8 17.1 15.4 86 1.4 S 13 20 7 11 - - 0.0
25/06:30am 17.7 17.2 16.0 90 1.0 S 13 24 7 13 - - 0.0
25/06:00am 17.5 17.5 16.2 92 0.8 S 11 19 6 10 - - 0.0
25/05:30am 17.7 17.7 16.2 91 0.9 SSE 11 17 6 9 - - 0.0
25/05:00am 17.7 18.1 16.2 91 0.9 S 9 15 5 8 - - 0.0
25/04:30am 18.0 18.0 16.3 90 1.0 S 11 15 6 8 - - 0.0
25/04:00am 18.1 18.5 16.4 90 1.0 SSE 9 15 5 8 - - 0.0
25/03:30am 18.1 18.9 16.3 89 1.1 ESE 7 13 4 7 - - 0.0
25/03:00am 18.1 18.5 16.4 90 1.0 S 9 17 5 9 - - 0.0
25/02:30am 18.1 18.1 16.3 89 1.1 S 11 19 6 10 - - 0.0
25/02:00am 18.4 19.3 16.6 89 1.1 SSW 7 13 4 7 - - 0.0
25/01:30am 18.3 18.8 16.5 89 1.1 S 9 15 5 8 - - 0.0
25/01:00am 18.5 19.4 16.7 89 1.1 SE 7 13 4 7 - - 0.0
25/12:30am 18.5 19.4 16.5 88 1.2 S 7 11 4 6 - - 0.0
25/12:00am 18.6 18.6 16.2 86 1.4 S 11 17 6 9 - - 0.0
 
Date/Time
WST
Temp
°C
App
Temp
°C
Dew
Point
Rel
Hum
%
Delta-T
°C
Wind Press
QNH
hPa
Press
MSL
hPa
Rain
since 9 am
mm
Dir
 
Spd
km/h
Gust
km/h
Spd
kts
Gust
kts
24/11:30pm 18.8 19.1 16.0 84 1.7 SSW 9 17 5 9 - - 0.0
24/11:00pm 19.2 18.6 15.7 80 2.1 SSW 13 20 7 11 - - 0.0
24/10:30pm 20.0 19.8 14.8 72 3.1 SSW 9 15 5 8 - - 0.0
24/10:00pm 20.1 19.7 14.2 69 3.5 SSW 9 11 5 6 - - 0.0
24/09:30pm 20.8 20.8 14.2 66 3.9 S 7 11 4 6 - - 0.0
24/09:00pm 21.5 21.8 14.4 64 4.2 E 6 9 3 5 - - 0.0
24/08:30pm 21.8 22.7 13.9 61 4.6 S 2 7 1 4 - - 0.0
24/08:00pm 22.7 22.4 14.3 59 5.0 S 9 13 5 7 - - 0.0
24/07:30pm 23.8 23.1 14.2 55 5.7 S 11 17 6 9 - - 0.0
24/07:00pm 25.0 24.3 14.2 51 6.5 S 11 17 6 9 - - 0.0
24/06:30pm 26.4 24.8 13.9 46 7.5 S 15 20 8 11 - - 0.0
24/06:00pm 27.7 25.9 13.3 41 8.6 S 15 26 8 14 - - 0.0
24/05:30pm 28.4 26.3 13.5 40 8.9 S 17 30 9 16 - - 0.0
24/05:00pm 30.0 27.9 13.7 37 9.9 S 17 28 9 15 - - 0.0
24/04:30pm 30.9 28.5 13.7 35 10.5 S 19 32 10 17 - - 0.0
24/04:00pm 32.5 29.9 13.2 31 11.7 S 19 28 10 15 - - 0.0

Other Formats:

Comma delimited format used in spreadsheet applications
http://www.bom.gov.au/fwo/IDW60801/IDW60801.94631.axf

JavaScript Object Notation format (JSON) in row-major order
http://www.bom.gov.au/fwo/IDW60801/IDW60801.94631.json